Odyssey III — WCT5769 — position and weather

sailwx.info

Track history (hours):
 
Tides and Currents Weather Stations Pressure Air Temp Water Temp Dewpoint Dewpoint Depression Visibility Wind Speed Wind Dir Waves Ship Positions

Odyssey III

Owner: ODYSSEY CRUISES, WASHINGTON, DC. More information available from US FCC via Universal Licensing System and Coast Guard Vessel Documentation Center.

Last reported at 2017-Sep-21 01:59 UTC. Time now 2017-Sep-21 04:58 UTC.
Position N 38°52' W 077°01'.

Length 73 m; draft 2 m.

Type: Passenger vessel. MMSI: 367055340.

Date/timePositionNaut miles runAvg speedWind from/ knotsBaromVisibWave heightAir tempDewpointWater temp
2017-Sep-21 01:59N 38°52' W 077°01'1 2.9
2017-Sep-21 01:30N 38°51' W 077°01'3 5.8
2017-Sep-21 00:59N 38°48' W 077°02'0 0.1
2017-Sep-21 00:30N 38°48' W 077°02'3 5.4
2017-Sep-21 00:00N 38°51' W 077°01'1 1.6
2017-Sep-20 23:30N 38°52' W 077°02'1 1.7
2017-Sep-20 23:00N 38°52' W 077°01'0 0.0
2017-Sep-20 22:29N 38°52' W 077°01'0 0.0
2017-Sep-20 21:58N 38°52' W 077°01'0 0.0
2017-Sep-20 21:30N 38°52' W 077°01'0 0.0
2017-Sep-20 20:59N 38°52' W 077°01'0 0.0
2017-Sep-20 20:29N 38°52' W 077°01'0 0.0
2017-Sep-20 19:59N 38°52' W 077°01'0 0.0
2017-Sep-20 19:29N 38°52' W 077°01'0 0.0
2017-Sep-20 18:59N 38°52' W 077°01'0 0.0
2017-Sep-20 18:30N 38°52' W 077°01'0 0.0
2017-Sep-20 18:00N 38°52' W 077°01'0 0.0
2017-Sep-20 17:29N 38°52' W 077°01'0 0.0
2017-Sep-20 16:59N 38°52' W 077°01'0 0.0
2017-Sep-20 16:30N 38°52' W 077°01'0 0.0
2017-Sep-20 15:59N 38°52' W 077°01'0 0.0
2017-Sep-20 15:29N 38°52' W 077°01'0 0.0
2017-Sep-20 15:00N 38°52' W 077°01'0 0.0
2017-Sep-20 14:00N 38°52' W 077°01'0 0.0
2017-Sep-20 13:30N 38°52' W 077°01'0 0.0
2017-Sep-20 13:00N 38°52' W 077°01'0 0.0
2017-Sep-20 12:30N 38°52' W 077°01'0 0.0
2017-Sep-20 11:59N 38°52' W 077°01'0 0.0
2017-Sep-20 11:30N 38°52' W 077°01'0 0.0
2017-Sep-20 10:58N 38°52' W 077°01'0 0.0
2017-Sep-20 10:29N 38°52' W 077°01'0 0.0
2017-Sep-20 10:00N 38°52' W 077°01'0 0.0
2017-Sep-20 09:30N 38°52' W 077°01'0 0.0
2017-Sep-20 09:00N 38°52' W 077°01'0 0.0
2017-Sep-20 08:29N 38°52' W 077°01'0 0.0
2017-Sep-20 08:00N 38°52' W 077°01'0 0.0
2017-Sep-20 07:29N 38°52' W 077°01'0 0.0
2017-Sep-20 07:00N 38°52' W 077°01'0 0.0
2017-Sep-20 06:29N 38°52' W 077°01'0 0.0
2017-Sep-20 05:59N 38°52' W 077°01'0 0.0
2017-Sep-20 05:29N 38°52' W 077°01'0 0.0
2017-Sep-20 05:00N 38°52' W 077°01'0 0.0
2017-Sep-20 04:30N 38°52' W 077°01'0 0.0
2017-Sep-20 04:00N 38°52' W 077°01'0 0.0
2017-Sep-20 03:30N 38°52' W 077°01'0 0.0
2017-Sep-20 02:58N 38°52' W 077°01'0 0.0
2017-Sep-20 02:30N 38°52' W 077°01'0 0.0
2017-Sep-20 02:00N 38°52' W 077°01'0 0.0
2017-Sep-20 01:29N 38°52' W 077°01'0 0.0
2017-Sep-20 00:59N 38°52' W 077°01'1 1.9
2017-Sep-20 00:30N 38°52' W 077°01'0 0.8
2017-Sep-20 00:00N 38°52' W 077°00'1 2.4
2017-Sep-19 23:29N 38°52' W 077°02'2 3.8
2017-Sep-19 23:00N 38°54' W 077°03'3 5.3
2017-Sep-19 22:30N 38°52' W 077°01'1 1.9
2017-Sep-19 22:00N 38°52' W 077°01'0 0.0
2017-Sep-19 21:29N 38°52' W 077°01'0 0.0
2017-Sep-18 02:01N 38°52' W 077°01'0 0.0
2017-Sep-18 01:59N 38°52' W 077°01'1 2.5
2017-Sep-18 01:30N 38°51' W 077°01'1 1.7
2017-Sep-18 00:59N 38°50' W 077°01'3 5.3
2017-Sep-18 00:29N 38°48' W 077°02'0 0.3
2017-Sep-18 00:00N 38°48' W 077°02'3 5.6
2017-Sep-17 23:29N 38°51' W 077°01'2 3.5
2017-Sep-17 23:00N 38°52' W 077°01'0 0.0
2017-Sep-17 22:29N 38°52' W 077°01'0 0.0
2017-Sep-17 21:59N 38°52' W 077°01'0 0.0
2017-Sep-17 21:30N 38°52' W 077°01'0 0.0
2017-Sep-17 20:59N 38°52' W 077°01'0 0.0
2017-Sep-17 20:29N 38°52' W 077°01'0 0.0
2017-Sep-17 20:00N 38°52' W 077°01'0 0.0
2017-Sep-17 19:30N 38°52' W 077°01'0 0.0
2017-Sep-17 19:00N 38°52' W 077°01'0 0.0
2017-Sep-17 18:29N 38°52' W 077°01'0 0.0
2017-Sep-17 18:00N 38°52' W 077°01'0 0.0
2017-Sep-17 17:30N 38°52' W 077°01'1 1.9
2017-Sep-17 17:00N 38°52' W 077°02'3 5.4
2017-Sep-17 16:30N 38°54' W 077°04'2 4.4
2017-Sep-17 16:00N 38°52' W 077°02'1 1.3
2017-Sep-17 15:29N 38°52' W 077°01'0 0.0
2017-Sep-17 15:00N 38°52' W 077°01'0 0.0
2017-Sep-17 14:30N 38°52' W 077°01'0 0.0
2017-Sep-17 13:59N 38°52' W 077°01'0 0.0
2017-Sep-17 13:29N 38°52' W 077°01'0 0.0
2017-Sep-17 02:09N 38°52' W 077°01'0 0.2
2017-Sep-17 02:00N 38°52' W 077°01'2 3.0
2017-Sep-17 01:30N 38°51' W 077°01'2 4.0
2017-Sep-17 01:00N 38°49' W 077°02'1 1.2
2017-Sep-17 00:30N 38°48' W 077°02'3 5.8
2017-Sep-17 00:00N 38°51' W 077°01'0 0.2
2017-Sep-16 23:29N 38°51' W 077°01'1 2.4
2017-Sep-16 22:59N 38°52' W 077°01'0 0.0
2017-Sep-16 22:30N 38°52' W 077°01'0 0.0
2017-Sep-16 21:59N 38°52' W 077°01'0 0.0
2017-Sep-16 21:30N 38°52' W 077°01'0 0.0
2017-Sep-16 20:58N 38°52' W 077°01'0 0.0
2017-Sep-16 20:30N 38°52' W 077°01'0 0.0
2017-Sep-16 20:00N 38°52' W 077°01'0 0.0
2017-Sep-16 19:30N 38°52' W 077°01'0 0.0
2017-Sep-16 19:00N 38°52' W 077°01'0 0.0
2017-Sep-16 18:29N 38°52' W 077°01'0 0.0
2017-Sep-16 18:00N 38°52' W 077°01'0 0.0
2017-Sep-16 17:30N 38°52' W 077°01'1 1.6
2017-Sep-16 16:59N 38°52' W 077°02'3 5.2
2017-Sep-16 16:29N 38°54' W 077°03'3 5.6
2017-Sep-16 16:00N 38°52' W 077°02'1 1.8
2017-Sep-16 15:28N 38°52' W 077°01'0 0.0
2017-Sep-16 14:58N 38°52' W 077°01'0 0.0
2017-Sep-16 14:28N 38°52' W 077°01'0 0.0
2017-Sep-16 13:58N 38°52' W 077°01'0 0.0
2017-Sep-16 13:28N 38°52' W 077°01'0 0.0
2017-Sep-16 12:58N 38°52' W 077°01'0 0.0
2017-Sep-16 12:28N 38°52' W 077°01'0 0.0
2017-Sep-16 11:58N 38°52' W 077°01'0 0.0
2017-Sep-16 01:57N 38°52' W 077°01'1 1.8
2017-Sep-16 01:30N 38°52' W 077°01'1 1.2
2017-Sep-16 01:00N 38°52' W 077°02'2 3.9
2017-Sep-16 00:30N 38°54' W 077°03'0 0.3
2017-Sep-16 00:01N 38°53' W 077°03'3 5.0
2017-Sep-15 23:29N 38°51' W 077°01'1 2.4
2017-Sep-15 22:58N 38°52' W 077°01'0 0.0
2017-Sep-15 22:28N 38°52' W 077°01'0 0.0
2017-Sep-15 21:58N 38°52' W 077°01'0 0.0
2017-Sep-15 21:28N 38°52' W 077°01'0 0.0
2017-Sep-15 01:01N 38°52' W 077°01'0 0.5
2017-Sep-15 00:55N 38°52' W 077°01'1 3.1
2017-Sep-15 00:30N 38°51' W 077°01'2 3.8
2017-Sep-14 23:59N 38°53' W 077°03'2 3.5
2017-Sep-14 23:30N 38°52' W 077°01'1 1.4
2017-Sep-14 22:56N 38°52' W 077°01'0 0.0
2017-Sep-14 22:26N 38°52' W 077°01'0 0.0
2017-Sep-14 21:56N 38°52' W 077°01'0 0.0
2017-Sep-14 21:29N 38°52' W 077°01'0 0.0
2017-Sep-14 21:00N 38°52' W 077°01'0 0.0
2017-Sep-14 20:29N 38°52' W 077°01'0 0.0
2017-Sep-14 20:00N 38°52' W 077°01'0 0.0
2017-Sep-14 19:29N 38°52' W 077°01'0 0.0
2017-Sep-14 18:59N 38°52' W 077°01'0 0.0
2017-Sep-14 18:29N 38°52' W 077°01'0 0.0
2017-Sep-14 17:59N 38°52' W 077°01'1 1.6
2017-Sep-14 17:30N 38°52' W 077°02'2 4.9
2017-Sep-14 17:00N 38°54' W 077°03'2 4.3
2017-Sep-14 16:29N 38°52' W 077°02'1 1.3
2017-Sep-14 16:00N 38°52' W 077°01'0 0.0
2017-Sep-14 15:29N 38°52' W 077°01'0 0.0
2017-Sep-14 15:00N 38°52' W 077°01'0 0.0
2017-Sep-14 14:29N 38°52' W 077°01'0 0.0
2017-Sep-14 14:00N 38°52' W 077°01'0 0.0
2017-Sep-14 13:30N 38°52' W 077°01'0 0.0
2017-Sep-14 13:00N 38°52' W 077°01'0 0.0
2017-Sep-14 01:57N 38°52' W 077°01'1 2.1
2017-Sep-14 01:30N 38°52' W 077°01'1 1.6
2017-Sep-14 01:00N 38°52' W 077°02'2 3.9
2017-Sep-14 00:30N 38°53' W 077°03'0 0.1
2017-Sep-14 00:00N 38°53' W 077°03'3 5.3
2017-Sep-13 23:30N 38°51' W 077°01'1 2.4
2017-Sep-13 22:59N 38°52' W 077°01'0 0.0
2017-Sep-13 22:30N 38°52' W 077°01'0 0.0
2017-Sep-13 22:00N 38°52' W 077°01'0 0.0
2017-Sep-13 21:28N 38°52' W 077°01'0 0.0
2017-Sep-13 21:00N 38°52' W 077°01'0 0.0
2017-Sep-13 20:29N 38°52' W 077°01'0 0.0
2017-Sep-13 19:59N 38°52' W 077°01'0 0.0
2017-Sep-13 19:29N 38°52' W 077°01'0 0.0
2017-Sep-13 02:04N 38°52' W 077°01'0 0.0
2017-Sep-13 02:00N 38°52' W 077°01'1 1.7
2017-Sep-13 01:28N 38°52' W 077°01'1 1.4
2017-Sep-13 00:59N 38°51' W 077°01'3 5.4
2017-Sep-13 00:30N 38°53' W 077°03'0 0.3
2017-Sep-12 23:59N 38°54' W 077°03'3 5.8
2017-Sep-12 23:30N 38°51' W 077°01'1 2.4
2017-Sep-12 22:58N 38°52' W 077°01'0 0.0
2017-Sep-12 22:30N 38°52' W 077°01'0 0.0
2017-Sep-12 22:00N 38°52' W 077°01'0 0.0
2017-Sep-12 21:29N 38°52' W 077°01'0 0.0
2017-Sep-12 20:59N 38°52' W 077°01'0 0.0
2017-Sep-12 20:30N 38°52' W 077°01'0 0.0
2017-Sep-12 19:58N 38°52' W 077°01'0 0.0
2017-Sep-12 19:30N 38°52' W 077°01'0 0.0
2017-Sep-12 18:59N 38°52' W 077°01'0 0.0
2017-Sep-12 18:30N 38°52' W 077°01'0 0.0
2017-Sep-12 18:00N 38°52' W 077°01'0 0.0
2017-Sep-12 17:29N 38°52' W 077°01'0 0.0
2017-Sep-12 16:58N 38°52' W 077°01'0 0.0
2017-Sep-12 16:30N 38°52' W 077°01'0 0.0
2017-Sep-12 16:00N 38°52' W 077°01'0 0.0
2017-Sep-12 15:30N 38°52' W 077°01'0 0.0
2017-Sep-12 15:00N 38°52' W 077°01'0 0.0
2017-Sep-12 14:30N 38°52' W 077°01'0 0.0
2017-Sep-12 13:59N 38°52' W 077°01'0 0.0
2017-Sep-12 13:29N 38°52' W 077°01'0 0.0
2017-Sep-12 12:59N 38°52' W 077°01'0 0.0
2017-Sep-12 12:30N 38°52' W 077°01'0 0.0
2017-Sep-12 11:59N 38°52' W 077°01'0 0.0
2017-Sep-12 11:30N 38°52' W 077°01'0 0.0
2017-Sep-12 10:58N 38°52' W 077°01'0 0.0
2017-Sep-12 10:29N 38°52' W 077°01'0 0.0
2017-Sep-12 09:59N 38°52' W 077°01'0 0.0
2017-Sep-12 09:29N 38°52' W 077°01'0 0.0
2017-Sep-12 08:58N 38°52' W 077°01'0 0.0
2017-Sep-12 08:29N 38°52' W 077°01'0 0.0
2017-Sep-12 07:58N 38°52' W 077°01'0 0.0
2017-Sep-12 07:29N 38°52' W 077°01'0 0.0
2017-Sep-12 06:59N 38°52' W 077°01'0 0.0
2017-Sep-12 06:29N 38°52' W 077°01'0 0.0
2017-Sep-12 05:58N 38°52' W 077°01'0 0.0
2017-Sep-12 05:30N 38°52' W 077°01'0 0.0
2017-Sep-12 04:59N 38°52' W 077°01'0 0.0
2017-Sep-12 04:29N 38°52' W 077°01'0 0.0
2017-Sep-12 03:59N 38°52' W 077°01'0 0.0
2017-Sep-12 03:28N 38°52' W 077°01'0 0.0
2017-Sep-12 02:59N 38°52' W 077°01'0 0.0
2017-Sep-12 02:30N 38°52' W 077°01'0 0.0
2017-Sep-12 02:00N 38°52' W 077°01'0 0.0
2017-Sep-12 01:30N 38°52' W 077°01'0 0.0
2017-Sep-12 00:59N 38°52' W 077°01'0 0.0
2017-Sep-12 00:30N 38°52' W 077°01'0 0.0
2017-Sep-11 23:59N 38°52' W 077°01'0 0.0
2017-Sep-11 23:29N 38°52' W 077°01'0 0.0
2017-Sep-11 23:00N 38°52' W 077°01'0 0.0
2017-Sep-11 22:29N 38°52' W 077°01'0 0.0
2017-Sep-11 21:58N 38°52' W 077°01'0 0.0
2017-Sep-11 21:29N 38°52' W 077°01'0 0.0
2017-Sep-11 21:00N 38°52' W 077°01'0 0.0
2017-Sep-11 20:30N 38°52' W 077°01'0 0.0
2017-Sep-11 20:00N 38°52' W 077°01'0 0.0
2017-Sep-11 19:29N 38°52' W 077°01'0 0.0
2017-Sep-11 18:59N 38°52' W 077°01'0 0.0
2017-Sep-11 18:30N 38°52' W 077°01'0 0.0
2017-Sep-11 18:00N 38°52' W 077°01'0 0.0
2017-Sep-11 17:28N 38°52' W 077°01'0 0.0
2017-Sep-11 16:54N 38°52' W 077°01'0 0.0
2017-Sep-11 16:30N 38°52' W 077°01'0 0.0
2017-Sep-11 16:00N 38°52' W 077°01'0 0.0
2017-Sep-11 15:30N 38°52' W 077°01'0 0.0
2017-Sep-11 15:00N 38°52' W 077°01'0 0.0
2017-Sep-11 14:30N 38°52' W 077°01'0 0.0
2017-Sep-11 13:58N 38°52' W 077°01'0 0.0
2017-Sep-11 13:25N 38°52' W 077°01'0 0.0
2017-Sep-11 12:59N 38°52' W 077°01'0 0.0
2017-Sep-11 12:29N 38°52' W 077°01'0 0.0
2017-Sep-11 12:00N 38°52' W 077°01'0 0.0
2017-Sep-11 11:30N 38°52' W 077°01'0 0.0
2017-Sep-11 11:00N 38°52' W 077°01'0 0.0
2017-Sep-11 10:29N 38°52' W 077°01'0 0.0
2017-Sep-11 10:00N 38°52' W 077°01'0 0.0
2017-Sep-11 09:30N 38°52' W 077°01'0 0.0
2017-Sep-11 08:58N 38°52' W 077°01'0 0.0
2017-Sep-11 08:29N 38°52' W 077°01'0 0.0
2017-Sep-11 07:58N 38°52' W 077°01'0 0.0
2017-Sep-11 07:29N 38°52' W 077°01'0 0.0
2017-Sep-11 07:00N 38°52' W 077°01'0 0.0
2017-Sep-11 06:29N 38°52' W 077°01'0 0.0
2017-Sep-11 06:00N 38°52' W 077°01'0 0.0
2017-Sep-11 05:30N 38°52' W 077°01'0 0.0
2017-Sep-11 04:59N 38°52' W 077°01'0 0.0
2017-Sep-11 04:30N 38°52' W 077°01'0 0.0
2017-Sep-11 04:00N 38°52' W 077°01'0 0.0
2017-Sep-11 03:29N 38°52' W 077°01'0 0.0
2017-Sep-11 02:59N 38°52' W 077°01'0 0.0
2017-Sep-11 02:30N 38°52' W 077°01'0 0.0
2017-Sep-11 01:59N 38°52' W 077°01'  
Track history (hours):
 
Tides and Currents Weather Stations Pressure Air Temp Water Temp Dewpoint Dewpoint Depression Visibility Wind Speed Wind Dir Waves Ship Positions

Odyssey III

Owner: ODYSSEY CRUISES, WASHINGTON, DC. More information available from US FCC via Universal Licensing System and Coast Guard Vessel Documentation Center.

Last reported at 2017-Sep-21 01:59 UTC. Time now 2017-Sep-21 04:58 UTC.
Position N 38°52' W 077°01'.

Length 73 m; draft 2 m.

Type: Passenger vessel. MMSI: 367055340.

Date/timePositionNaut miles runAvg speedWind from/ knotsBaromVisibWave heightAir tempDewpointWater temp
2017-Sep-21 01:59N 38°52' W 077°01'1 2.9
2017-Sep-21 01:30N 38°51' W 077°01'3 5.8
2017-Sep-21 00:59N 38°48' W 077°02'0 0.1
2017-Sep-21 00:30N 38°48' W 077°02'3 5.4
2017-Sep-21 00:00N 38°51' W 077°01'1 1.6
2017-Sep-20 23:30N 38°52' W 077°02'1 1.7
2017-Sep-20 23:00N 38°52' W 077°01'0 0.0
2017-Sep-20 22:29N 38°52' W 077°01'0 0.0
2017-Sep-20 21:58N 38°52' W 077°01'0 0.0
2017-Sep-20 21:30N 38°52' W 077°01'0 0.0
2017-Sep-20 20:59N 38°52' W 077°01'0 0.0
2017-Sep-20 20:29N 38°52' W 077°01'0 0.0
2017-Sep-20 19:59N 38°52' W 077°01'0 0.0
2017-Sep-20 19:29N 38°52' W 077°01'0 0.0
2017-Sep-20 18:59N 38°52' W 077°01'0 0.0
2017-Sep-20 18:30N 38°52' W 077°01'0 0.0
2017-Sep-20 18:00N 38°52' W 077°01'0 0.0
2017-Sep-20 17:29N 38°52' W 077°01'0 0.0
2017-Sep-20 16:59N 38°52' W 077°01'0 0.0
2017-Sep-20 16:30N 38°52' W 077°01'0 0.0
2017-Sep-20 15:59N 38°52' W 077°01'0 0.0
2017-Sep-20 15:29N 38°52' W 077°01'0 0.0
2017-Sep-20 15:00N 38°52' W 077°01'0 0.0
2017-Sep-20 14:00N 38°52' W 077°01'0 0.0
2017-Sep-20 13:30N 38°52' W 077°01'0 0.0
2017-Sep-20 13:00N 38°52' W 077°01'0 0.0
2017-Sep-20 12:30N 38°52' W 077°01'0 0.0
2017-Sep-20 11:59N 38°52' W 077°01'0 0.0
2017-Sep-20 11:30N 38°52' W 077°01'0 0.0
2017-Sep-20 10:58N 38°52' W 077°01'0 0.0
2017-Sep-20 10:29N 38°52' W 077°01'0 0.0
2017-Sep-20 10:00N 38°52' W 077°01'0 0.0
2017-Sep-20 09:30N 38°52' W 077°01'0 0.0
2017-Sep-20 09:00N 38°52' W 077°01'0 0.0
2017-Sep-20 08:29N 38°52' W 077°01'0 0.0
2017-Sep-20 08:00N 38°52' W 077°01'0 0.0
2017-Sep-20 07:29N 38°52' W 077°01'0 0.0
2017-Sep-20 07:00N 38°52' W 077°01'0 0.0
2017-Sep-20 06:29N 38°52' W 077°01'0 0.0
2017-Sep-20 05:59N 38°52' W 077°01'0 0.0
2017-Sep-20 05:29N 38°52' W 077°01'0 0.0
2017-Sep-20 05:00N 38°52' W 077°01'0 0.0
2017-Sep-20 04:30N 38°52' W 077°01'0 0.0
2017-Sep-20 04:00N 38°52' W 077°01'0 0.0
2017-Sep-20 03:30N 38°52' W 077°01'0 0.0
2017-Sep-20 02:58N 38°52' W 077°01'0 0.0
2017-Sep-20 02:30N 38°52' W 077°01'0 0.0
2017-Sep-20 02:00N 38°52' W 077°01'0 0.0
2017-Sep-20 01:29N 38°52' W 077°01'0 0.0
2017-Sep-20 00:59N 38°52' W 077°01'1 1.9
2017-Sep-20 00:30N 38°52' W 077°01'0 0.8
2017-Sep-20 00:00N 38°52' W 077°00'1 2.4
2017-Sep-19 23:29N 38°52' W 077°02'2 3.8
2017-Sep-19 23:00N 38°54' W 077°03'3 5.3
2017-Sep-19 22:30N 38°52' W 077°01'1 1.9
2017-Sep-19 22:00N 38°52' W 077°01'0 0.0
2017-Sep-19 21:29N 38°52' W 077°01'0 0.0
2017-Sep-18 02:01N 38°52' W 077°01'0 0.0
2017-Sep-18 01:59N 38°52' W 077°01'1 2.5
2017-Sep-18 01:30N 38°51' W 077°01'1 1.7
2017-Sep-18 00:59N 38°50' W 077°01'3 5.3
2017-Sep-18 00:29N 38°48' W 077°02'0 0.3
2017-Sep-18 00:00N 38°48' W 077°02'3 5.6
2017-Sep-17 23:29N 38°51' W 077°01'2 3.5
2017-Sep-17 23:00N 38°52' W 077°01'0 0.0
2017-Sep-17 22:29N 38°52' W 077°01'0 0.0
2017-Sep-17 21:59N 38°52' W 077°01'0 0.0
2017-Sep-17 21:30N 38°52' W 077°01'0 0.0
2017-Sep-17 20:59N 38°52' W 077°01'0 0.0
2017-Sep-17 20:29N 38°52' W 077°01'0 0.0
2017-Sep-17 20:00N 38°52' W 077°01'0 0.0
2017-Sep-17 19:30N 38°52' W 077°01'0 0.0
2017-Sep-17 19:00N 38°52' W 077°01'0 0.0
2017-Sep-17 18:29N 38°52' W 077°01'0 0.0
2017-Sep-17 18:00N 38°52' W 077°01'0 0.0
2017-Sep-17 17:30N 38°52' W 077°01'1 1.9
2017-Sep-17 17:00N 38°52' W 077°02'3 5.4
2017-Sep-17 16:30N 38°54' W 077°04'2 4.4
2017-Sep-17 16:00N 38°52' W 077°02'1 1.3
2017-Sep-17 15:29N 38°52' W 077°01'0 0.0
2017-Sep-17 15:00N 38°52' W 077°01'0 0.0
2017-Sep-17 14:30N 38°52' W 077°01'0 0.0
2017-Sep-17 13:59N 38°52' W 077°01'0 0.0
2017-Sep-17 13:29N 38°52' W 077°01'0 0.0
2017-Sep-17 02:09N 38°52' W 077°01'0 0.2
2017-Sep-17 02:00N 38°52' W 077°01'2 3.0
2017-Sep-17 01:30N 38°51' W 077°01'2 4.0
2017-Sep-17 01:00N 38°49' W 077°02'1 1.2
2017-Sep-17 00:30N 38°48' W 077°02'3 5.8
2017-Sep-17 00:00N 38°51' W 077°01'0 0.2
2017-Sep-16 23:29N 38°51' W 077°01'1 2.4
2017-Sep-16 22:59N 38°52' W 077°01'0 0.0
2017-Sep-16 22:30N 38°52' W 077°01'0 0.0
2017-Sep-16 21:59N 38°52' W 077°01'0 0.0
2017-Sep-16 21:30N 38°52' W 077°01'0 0.0
2017-Sep-16 20:58N 38°52' W 077°01'0 0.0
2017-Sep-16 20:30N 38°52' W 077°01'0 0.0
2017-Sep-16 20:00N 38°52' W 077°01'0 0.0
2017-Sep-16 19:30N 38°52' W 077°01'0 0.0
2017-Sep-16 19:00N 38°52' W 077°01'0 0.0
2017-Sep-16 18:29N 38°52' W 077°01'0 0.0
2017-Sep-16 18:00N 38°52' W 077°01'0 0.0
2017-Sep-16 17:30N 38°52' W 077°01'1 1.6
2017-Sep-16 16:59N 38°52' W 077°02'3 5.2
2017-Sep-16 16:29N 38°54' W 077°03'3 5.6
2017-Sep-16 16:00N 38°52' W 077°02'1 1.8
2017-Sep-16 15:28N 38°52' W 077°01'0 0.0
2017-Sep-16 14:58N 38°52' W 077°01'0 0.0
2017-Sep-16 14:28N 38°52' W 077°01'0 0.0
2017-Sep-16 13:58N 38°52' W 077°01'0 0.0
2017-Sep-16 13:28N 38°52' W 077°01'0 0.0
2017-Sep-16 12:58N 38°52' W 077°01'0 0.0
2017-Sep-16 12:28N 38°52' W 077°01'0 0.0
2017-Sep-16 11:58N 38°52' W 077°01'0 0.0
2017-Sep-16 01:57N 38°52' W 077°01'1 1.8
2017-Sep-16 01:30N 38°52' W 077°01'1 1.2
2017-Sep-16 01:00N 38°52' W 077°02'2 3.9
2017-Sep-16 00:30N 38°54' W 077°03'0 0.3
2017-Sep-16 00:01N 38°53' W 077°03'3 5.0
2017-Sep-15 23:29N 38°51' W 077°01'1 2.4
2017-Sep-15 22:58N 38°52' W 077°01'0 0.0
2017-Sep-15 22:28N 38°52' W 077°01'0 0.0
2017-Sep-15 21:58N 38°52' W 077°01'0 0.0
2017-Sep-15 21:28N 38°52' W 077°01'0 0.0
2017-Sep-15 01:01N 38°52' W 077°01'0 0.5
2017-Sep-15 00:55N 38°52' W 077°01'1 3.1
2017-Sep-15 00:30N 38°51' W 077°01'2 3.8
2017-Sep-14 23:59N 38°53' W 077°03'2 3.5
2017-Sep-14 23:30N 38°52' W 077°01'1 1.4
2017-Sep-14 22:56N 38°52' W 077°01'0 0.0
2017-Sep-14 22:26N 38°52' W 077°01'0 0.0
2017-Sep-14 21:56N 38°52' W 077°01'0 0.0
2017-Sep-14 21:29N 38°52' W 077°01'0 0.0
2017-Sep-14 21:00N 38°52' W 077°01'0 0.0
2017-Sep-14 20:29N 38°52' W 077°01'0 0.0
2017-Sep-14 20:00N 38°52' W 077°01'0 0.0
2017-Sep-14 19:29N 38°52' W 077°01'0 0.0
2017-Sep-14 18:59N 38°52' W 077°01'0 0.0
2017-Sep-14 18:29N 38°52' W 077°01'0 0.0
2017-Sep-14 17:59N 38°52' W 077°01'1 1.6
2017-Sep-14 17:30N 38°52' W 077°02'2 4.9
2017-Sep-14 17:00N 38°54' W 077°03'2 4.3
2017-Sep-14 16:29N 38°52' W 077°02'1 1.3
2017-Sep-14 16:00N 38°52' W 077°01'0 0.0
2017-Sep-14 15:29N 38°52' W 077°01'0 0.0
2017-Sep-14 15:00N 38°52' W 077°01'0 0.0
2017-Sep-14 14:29N 38°52' W 077°01'0 0.0
2017-Sep-14 14:00N 38°52' W 077°01'0 0.0
2017-Sep-14 13:30N 38°52' W 077°01'0 0.0
2017-Sep-14 13:00N 38°52' W 077°01'0 0.0
2017-Sep-14 01:57N 38°52' W 077°01'1 2.1
2017-Sep-14 01:30N 38°52' W 077°01'1 1.6
2017-Sep-14 01:00N 38°52' W 077°02'2 3.9
2017-Sep-14 00:30N 38°53' W 077°03'0 0.1
2017-Sep-14 00:00N 38°53' W 077°03'3 5.3
2017-Sep-13 23:30N 38°51' W 077°01'1 2.4
2017-Sep-13 22:59N 38°52' W 077°01'0 0.0
2017-Sep-13 22:30N 38°52' W 077°01'0 0.0
2017-Sep-13 22:00N 38°52' W 077°01'0 0.0
2017-Sep-13 21:28N 38°52' W 077°01'0 0.0
2017-Sep-13 21:00N 38°52' W 077°01'0 0.0
2017-Sep-13 20:29N 38°52' W 077°01'0 0.0
2017-Sep-13 19:59N 38°52' W 077°01'0 0.0
2017-Sep-13 19:29N 38°52' W 077°01'0 0.0
2017-Sep-13 02:04N 38°52' W 077°01'0 0.0
2017-Sep-13 02:00N 38°52' W 077°01'1 1.7
2017-Sep-13 01:28N 38°52' W 077°01'1 1.4
2017-Sep-13 00:59N 38°51' W 077°01'3 5.4
2017-Sep-13 00:30N 38°53' W 077°03'0 0.3
2017-Sep-12 23:59N 38°54' W 077°03'3 5.8
2017-Sep-12 23:30N 38°51' W 077°01'1 2.4
2017-Sep-12 22:58N 38°52' W 077°01'0 0.0
2017-Sep-12 22:30N 38°52' W 077°01'0 0.0
2017-Sep-12 22:00N 38°52' W 077°01'0 0.0
2017-Sep-12 21:29N 38°52' W 077°01'0 0.0
2017-Sep-12 20:59N 38°52' W 077°01'0 0.0
2017-Sep-12 20:30N 38°52' W 077°01'0 0.0
2017-Sep-12 19:58N 38°52' W 077°01'0 0.0
2017-Sep-12 19:30N 38°52' W 077°01'0 0.0
2017-Sep-12 18:59N 38°52' W 077°01'0 0.0
2017-Sep-12 18:30N 38°52' W 077°01'0 0.0
2017-Sep-12 18:00N 38°52' W 077°01'0 0.0
2017-Sep-12 17:29N 38°52' W 077°01'0 0.0
2017-Sep-12 16:58N 38°52' W 077°01'0 0.0
2017-Sep-12 16:30N 38°52' W 077°01'0 0.0
2017-Sep-12 16:00N 38°52' W 077°01'0 0.0
2017-Sep-12 15:30N 38°52' W 077°01'0 0.0
2017-Sep-12 15:00N 38°52' W 077°01'0 0.0
2017-Sep-12 14:30N 38°52' W 077°01'0 0.0
2017-Sep-12 13:59N 38°52' W 077°01'0 0.0
2017-Sep-12 13:29N 38°52' W 077°01'0 0.0
2017-Sep-12 12:59N 38°52' W 077°01'0 0.0
2017-Sep-12 12:30N 38°52' W 077°01'0 0.0
2017-Sep-12 11:59N 38°52' W 077°01'0 0.0
2017-Sep-12 11:30N 38°52' W 077°01'0 0.0
2017-Sep-12 10:58N 38°52' W 077°01'0 0.0
2017-Sep-12 10:29N 38°52' W 077°01'0 0.0
2017-Sep-12 09:59N 38°52' W 077°01'0 0.0
2017-Sep-12 09:29N 38°52' W 077°01'0 0.0
2017-Sep-12 08:58N 38°52' W 077°01'0 0.0
2017-Sep-12 08:29N 38°52' W 077°01'0 0.0
2017-Sep-12 07:58N 38°52' W 077°01'0 0.0
2017-Sep-12 07:29N 38°52' W 077°01'0 0.0
2017-Sep-12 06:59N 38°52' W 077°01'0 0.0
2017-Sep-12 06:29N 38°52' W 077°01'0 0.0
2017-Sep-12 05:58N 38°52' W 077°01'0 0.0
2017-Sep-12 05:30N 38°52' W 077°01'0 0.0
2017-Sep-12 04:59N 38°52' W 077°01'0 0.0
2017-Sep-12 04:29N 38°52' W 077°01'0 0.0
2017-Sep-12 03:59N 38°52' W 077°01'0 0.0
2017-Sep-12 03:28N 38°52' W 077°01'0 0.0
2017-Sep-12 02:59N 38°52' W 077°01'0 0.0
2017-Sep-12 02:30N 38°52' W 077°01'0 0.0
2017-Sep-12 02:00N 38°52' W 077°01'0 0.0
2017-Sep-12 01:30N 38°52' W 077°01'0 0.0
2017-Sep-12 00:59N 38°52' W 077°01'0 0.0
2017-Sep-12 00:30N 38°52' W 077°01'0 0.0
2017-Sep-11 23:59N 38°52' W 077°01'0 0.0
2017-Sep-11 23:29N 38°52' W 077°01'0 0.0
2017-Sep-11 23:00N 38°52' W 077°01'0 0.0
2017-Sep-11 22:29N 38°52' W 077°01'0 0.0
2017-Sep-11 21:58N 38°52' W 077°01'0 0.0
2017-Sep-11 21:29N 38°52' W 077°01'0 0.0
2017-Sep-11 21:00N 38°52' W 077°01'0 0.0
2017-Sep-11 20:30N 38°52' W 077°01'0 0.0
2017-Sep-11 20:00N 38°52' W 077°01'0 0.0
2017-Sep-11 19:29N 38°52' W 077°01'0 0.0
2017-Sep-11 18:59N 38°52' W 077°01'0 0.0
2017-Sep-11 18:30N 38°52' W 077°01'0 0.0
2017-Sep-11 18:00N 38°52' W 077°01'0 0.0
2017-Sep-11 17:28N 38°52' W 077°01'0 0.0
2017-Sep-11 16:54N 38°52' W 077°01'0 0.0
2017-Sep-11 16:30N 38°52' W 077°01'0 0.0
2017-Sep-11 16:00N 38°52' W 077°01'0 0.0
2017-Sep-11 15:30N 38°52' W 077°01'0 0.0
2017-Sep-11 15:00N 38°52' W 077°01'0 0.0
2017-Sep-11 14:30N 38°52' W 077°01'0 0.0
2017-Sep-11 13:58N 38°52' W 077°01'0 0.0
2017-Sep-11 13:25N 38°52' W 077°01'0 0.0
2017-Sep-11 12:59N 38°52' W 077°01'0 0.0
2017-Sep-11 12:29N 38°52' W 077°01'0 0.0
2017-Sep-11 12:00N 38°52' W 077°01'0 0.0
2017-Sep-11 11:30N 38°52' W 077°01'0 0.0
2017-Sep-11 11:00N 38°52' W 077°01'0 0.0
2017-Sep-11 10:29N 38°52' W 077°01'0 0.0
2017-Sep-11 10:00N 38°52' W 077°01'0 0.0
2017-Sep-11 09:30N 38°52' W 077°01'0 0.0
2017-Sep-11 08:58N 38°52' W 077°01'0 0.0
2017-Sep-11 08:29N 38°52' W 077°01'0 0.0
2017-Sep-11 07:58N 38°52' W 077°01'0 0.0
2017-Sep-11 07:29N 38°52' W 077°01'0 0.0
2017-Sep-11 07:00N 38°52' W 077°01'0 0.0
2017-Sep-11 06:29N 38°52' W 077°01'0 0.0
2017-Sep-11 06:00N 38°52' W 077°01'0 0.0
2017-Sep-11 05:30N 38°52' W 077°01'0 0.0
2017-Sep-11 04:59N 38°52' W 077°01'0 0.0
2017-Sep-11 04:30N 38°52' W 077°01'0 0.0
2017-Sep-11 04:00N 38°52' W 077°01'0 0.0
2017-Sep-11 03:29N 38°52' W 077°01'0 0.0
2017-Sep-11 02:59N 38°52' W 077°01'0 0.0
2017-Sep-11 02:30N 38°52' W 077°01'0 0.0
2017-Sep-11 01:59N 38°52' W 077°01'  

Dump ship's entire track history